Terminal Aerodrome Forecast
Issued by NWS Wichita, KS

Home | Current Version | Previous Version | Text Only | Print | Product List | Glossary On
Versions: 1 2 3 4 5 6 7 8 9 10 11 12 13 14 15 16 17 18 19 20 21
000
FTUS43 KICT 010520
TAFICT
TAF
KICT 010520Z 0106/0206 31018G28KT P6SM VCSH OVC015
     FM011200 30018G26KT P6SM BKN050
     FM011500 29018G26KT P6SM SKC
     FM012300 28012KT P6SM SKC=

USA.gov is the U.S. government's official web portal to all federal, state and local government web resources and services.